Time;durP1;ratioP1;P1;durP2;ratioP2;P2;SDS_P1;SDS_P2;PMS_P1;PMS_P2;Temp;Humidity;BMP_temperature;BMP_pressure;BME280_temperature;BME280_humidity;BME280_pressure;Samples;Min_cycle;Max_cycle;Signal;HPM_P1;HPM_P2
2021/07/25 00:01:15;;;;;;;16.52;11.48;;;;;;;24.57;62.90;96790.69;4960039;28;20035;-62
2021/07/25 00:03:40;;;;;;;18.25;11.15;;;;;;;24.62;62.69;96792.78;4977577;28;20027;-62
2021/07/25 00:06:07;;;;;;;15.38;10.75;;;;;;;24.49;63.72;96792.88;4977734;28;20113;-62
2021/07/25 00:08:32;;;;;;;15.57;10.95;;;;;;;24.37;63.54;96792.78;4977403;28;20031;-62
2021/07/25 00:10:57;;;;;;;18.02;11.27;;;;;;;24.36;63.34;96793.84;4976091;28;20067;-62
2021/07/25 00:13:23;;;;;;;20.48;11.35;;;;;;;24.26;64.17;96793.50;4977276;28;20105;-61
2021/07/25 00:15:49;;;;;;;18.58;11.43;;;;;;;24.10;64.41;96790.25;4977594;28;20459;-62
2021/07/25 00:18:14;;;;;;;17.17;11.38;;;;;;;24.07;64.24;96797.03;4977422;28;20031;-62
2021/07/25 00:20:39;;;;;;;17.75;11.70;;;;;;;24.00;64.50;96793.50;4977186;28;20038;-62
2021/07/25 00:23:05;;;;;;;17.55;11.70;;;;;;;24.01;64.07;96794.31;4977731;28;20034;-62
2021/07/25 00:25:32;;;;;;;14.65;12.00;;;;;;;23.98;64.21;96798.34;4976439;28;20100;-61
2021/07/25 00:27:58;;;;;;;18.83;11.98;;;;;;;23.95;64.39;96789.75;4977930;28;20080;-62
2021/07/25 00:30:25;;;;;;;19.27;11.95;;;;;;;23.84;64.57;96789.34;4977183;28;20653;-62
2021/07/25 00:32:51;;;;;;;19.02;11.48;;;;;;;23.88;64.88;96793.34;4975777;28;20026;-62
2021/07/25 00:35:18;;;;;;;14.98;11.20;;;;;;;23.91;64.56;96789.34;4976983;28;20031;-62
2021/07/25 00:37:47;;;;;;;17.13;12.13;;;;;;;23.90;64.53;96788.50;4975496;28;20019;-61
2021/07/25 00:40:18;;;;;;;16.10;12.35;;;;;;;23.87;64.42;96785.31;4977212;28;20018;-62
2021/07/25 00:42:44;;;;;;;17.15;12.23;;;;;;;23.74;65.09;96780.75;4975487;28;20027;-62
2021/07/25 00:45:09;;;;;;;20.45;12.15;;;;;;;23.72;65.18;96780.97;4975566;28;20098;-62
2021/07/25 00:47:37;;;;;;;18.05;12.35;;;;;;;23.67;65.56;96774.47;4976806;28;20033;-61
2021/07/25 00:50:04;;;;;;;16.98;12.00;;;;;;;23.55;65.69;96769.66;4977230;28;20035;-62
2021/07/25 00:52:30;;;;;;;17.45;12.68;;;;;;;23.48;66.17;96768.03;4976472;28;20110;-61
2021/07/25 00:54:55;;;;;;;19.08;12.48;;;;;;;23.50;65.99;96766.75;4976575;28;20058;-62
2021/07/25 00:57:20;;;;;;;18.95;12.93;;;;;;;23.35;66.64;96764.28;4975642;28;20035;-62
2021/07/25 00:59:46;;;;;;;17.77;12.10;;;;;;;23.32;67.20;96762.00;4976559;28;20030;-62
2021/07/25 01:02:11;;;;;;;17.58;13.05;;;;;;;23.26;66.91;96762.03;4976873;28;20039;-60
2021/07/25 01:04:45;;;;;;;18.40;12.50;;;;;;;23.25;67.17;96750.22;4976640;28;20037;-62
2021/07/25 01:07:48;;;;;;;18.17;12.55;;;;;;;23.26;67.14;96751.88;4976714;28;20039;-62
2021/07/25 01:10:19;;;;;;;19.30;12.32;;;;;;;23.15;67.66;96745.19;4974963;28;20097;-62
2021/07/25 01:12:50;;;;;;;18.05;12.73;;;;;;;23.21;66.90;96748.94;4974842;28;20536;-61
2021/07/25 01:15:20;;;;;;;16.17;12.18;;;;;;;23.18;67.27;96746.66;4973992;28;20027;-62
2021/07/25 01:17:46;;;;;;;18.35;12.88;;;;;;;23.17;67.16;96744.97;4974069;28;20213;-61
2021/07/25 01:20:12;;;;;;;17.73;11.90;;;;;;;23.18;67.06;96744.78;4975365;28;20030;-62
2021/07/25 01:22:47;;;;;;;17.15;12.93;;;;;;;23.24;66.51;96741.13;4973900;28;20038;-61
2021/07/25 01:25:14;;;;;;;27.50;13.38;;;;;;;23.22;66.68;96739.66;4973910;28;20051;-60
2021/07/25 01:27:48;;;;;;;18.23;12.52;;;;;;;23.16;66.71;96741.41;4974068;28;20153;-60
2021/07/25 01:30:16;;;;;;;18.75;12.68;;;;;;;23.12;67.42;96734.63;4974089;28;20018;-61
2021/07/25 01:32:43;;;;;;;16.05;12.15;;;;;;;23.04;67.28;96743.13;4973917;28;20031;-61
2021/07/25 01:35:11;;;;;;;16.95;12.70;;;;;;;23.04;67.15;96737.63;4975151;28;20089;-61
2021/07/25 01:37:37;;;;;;;16.98;12.32;;;;;;;23.17;66.81;96740.34;4973933;28;20027;-61
2021/07/25 01:40:17;;;;;;;15.65;12.88;;;;;;;23.08;67.01;96739.69;4973843;28;20089;-61
2021/07/25 01:42:43;;;;;;;16.38;12.50;;;;;;;23.14;66.93;96738.00;4973987;28;20402;-61
2021/07/25 01:45:09;;;;;;;16.73;12.63;;;;;;;23.21;66.66;96740.72;4974420;28;20467;-62
2021/07/25 01:47:35;;;;;;;16.42;12.68;;;;;;;23.19;66.67;96735.47;4976174;28;20058;-62
2021/07/25 01:50:01;;;;;;;16.92;13.23;;;;;;;23.18;66.78;96741.16;4973597;28;20070;-62
2021/07/25 01:52:26;;;;;;;17.13;12.80;;;;;;;23.11;67.01;96737.59;4975562;28;20501;-61
2021/07/25 01:54:52;;;;;;;17.40;12.43;;;;;;;23.07;67.51;96742.66;4975843;28;20457;-62
2021/07/25 01:57:17;;;;;;;16.38;13.27;;;;;;;23.18;66.95;96747.50;4975371;28;20529;-62
2021/07/25 01:59:42;;;;;;;19.50;13.00;;;;;;;23.26;67.15;96742.81;4975494;28;20158;-62
2021/07/25 02:02:08;;;;;;;19.63;14.73;;;;;;;23.16;67.77;96746.88;4975719;28;20049;-61
2021/07/25 02:04:33;;;;;;;19.63;13.88;;;;;;;23.16;68.27;96744.13;4974451;28;20080;-62
2021/07/25 02:06:59;;;;;;;17.48;12.90;;;;;;;23.02;68.67;96737.84;4975345;28;20050;-62
2021/07/25 02:09:25;;;;;;;18.17;13.07;;;;;;;22.90;69.16;96734.06;4975246;28;20106;-62
2021/07/25 02:11:50;;;;;;;16.48;13.27;;;;;;;22.76;69.77;96738.78;4975165;28;20027;-62
2021/07/25 02:14:15;;;;;;;20.27;13.98;;;;;;;22.71;69.92;96752.28;4975093;28;20170;-62
2021/07/25 02:16:41;;;;;;;16.85;12.52;;;;;;;22.69;69.49;96749.75;4975184;28;20034;-62
2021/07/25 02:19:06;;;;;;;16.52;12.35;;;;;;;22.65;69.43;96753.13;4975052;28;20027;-62
2021/07/25 02:21:32;;;;;;;17.15;12.48;;;;;;;22.67;69.31;96751.03;4975466;28;20031;-62
2021/07/25 02:23:57;;;;;;;17.10;12.88;;;;;;;22.80;68.81;96755.66;4973832;28;20037;-61
2021/07/25 02:26:22;;;;;;;15.85;12.23;;;;;;;22.67;69.51;96751.88;4974887;28;20055;-62
2021/07/25 02:28:48;;;;;;;19.58;14.05;;;;;;;22.74;68.95;96757.31;4974991;28;20031;-61
2021/07/25 02:31:13;;;;;;;18.40;13.40;;;;;;;22.84;68.78;96748.66;4974812;28;20062;-62
2021/07/25 02:33:39;;;;;;;21.33;14.02;;;;;;;22.87;68.49;96746.31;4974964;28;20030;-62
2021/07/25 02:36:04;;;;;;;20.52;13.68;;;;;;;22.81;69.32;96744.47;4975060;28;20026;-62
2021/07/25 02:38:29;;;;;;;18.20;13.48;;;;;;;22.74;69.68;96749.97;4975023;28;20030;-61
2021/07/25 02:40:55;;;;;;;19.65;14.90;;;;;;;22.73;69.97;96745.53;4974731;28;20037;-61
2021/07/25 02:43:20;;;;;;;25.17;15.93;;;;;;;22.71;70.31;96733.94;4974834;28;20070;-62
2021/07/25 02:45:46;;;;;;;19.77;15.27;;;;;;;22.76;70.29;96733.28;4974988;28;20494;-62
2021/07/25 02:48:11;;;;;;;22.33;15.93;;;;;;;22.78;70.91;96731.16;4974915;28;20027;-62
2021/07/25 02:50:36;;;;;;;21.73;15.82;;;;;;;22.74;70.95;96721.69;4975317;28;20088;-62
2021/07/25 02:53:02;;;;;;;21.23;15.90;;;;;;;22.68;71.62;96725.31;4974765;28;20475;-61
2021/07/25 02:55:27;;;;;;;21.33;16.55;;;;;;;22.72;71.71;96727.41;4973194;28;20038;-62
2021/07/25 02:57:53;;;;;;;23.90;17.85;;;;;;;22.74;72.21;96724.44;4974726;28;20027;-61
2021/07/25 03:00:18;;;;;;;27.10;17.73;;;;;;;22.80;71.71;96731.81;4972832;28;20023;-61
2021/07/25 03:02:44;;;;;;;25.45;17.30;;;;;;;22.75;72.21;96728.88;4974711;28;20031;-62
2021/07/25 03:05:09;;;;;;;25.23;17.70;;;;;;;22.77;72.32;96723.16;4974450;28;20435;-62
2021/07/25 03:07:35;;;;;;;24.77;17.35;;;;;;;22.58;73.12;96731.22;4974444;28;20102;-61
2021/07/25 03:10:00;;;;;;;24.50;18.10;;;;;;;22.62;73.25;96715.19;4956660;28;20484;-60
2021/07/25 03:12:26;;;;;;;24.75;17.77;;;;;;;22.64;73.08;96713.94;4973573;28;20027;-58
2021/07/25 03:14:51;;;;;;;24.55;18.08;;;;;;;22.58;73.34;96709.31;4973818;28;20027;-59
2021/07/25 03:17:17;;;;;;;24.42;18.60;;;;;;;22.73;72.76;96711.81;4973724;28;20023;-59
2021/07/25 03:19:42;;;;;;;27.17;17.98;;;;;;;22.69;73.06;96710.56;4972598;28;20031;-61
2021/07/25 03:22:09;;;;;;;25.67;17.30;;;;;;;22.75;72.94;96706.94;4973420;28;20066;-61
2021/07/25 03:24:35;;;;;;;23.85;18.17;;;;;;;22.68;73.44;96711.63;4952165;28;20035;-60
2021/07/25 03:27:01;;;;;;;25.20;18.58;;;;;;;22.66;73.29;96706.34;4971811;28;20426;-60
2021/07/25 03:29:26;;;;;;;26.58;19.15;;;;;;;22.77;72.67;96704.84;4972209;28;20018;-60
2021/07/25 03:31:52;;;;;;;24.63;19.23;;;;;;;22.88;72.24;96695.09;4972262;28;20081;-61
2021/07/25 03:34:17;;;;;;;25.55;19.58;;;;;;;22.79;72.71;96704.63;4971843;28;20022;-60
2021/07/25 03:36:43;;;;;;;28.02;19.15;;;;;;;22.69;72.80;96703.16;4971905;28;20772;-60
2021/07/25 03:39:15;;;;;;;26.63;18.35;;;;;;;22.47;73.78;96708.06;4973455;28;20046;-61
2021/07/25 03:41:40;;;;;;;24.55;17.92;;;;;;;22.29;74.65;96713.34;4972234;28;20018;-60
2021/07/25 03:44:06;;;;;;;24.35;17.58;;;;;;;22.21;74.93;96717.16;4973578;28;20027;-60
2021/07/25 03:46:32;;;;;;;25.08;17.65;;;;;;;22.31;74.55;96724.94;4973355;28;20069;-59
2021/07/25 03:48:57;;;;;;;27.73;19.67;;;;;;;22.32;74.21;96721.97;4972681;28;20023;-60
2021/07/25 03:51:23;;;;;;;27.58;19.67;;;;;;;22.27;74.98;96724.50;4973566;28;20035;-62
2021/07/25 03:53:48;;;;;;;26.02;19.10;;;;;;;22.20;74.71;96730.00;4972538;28;20037;-61
2021/07/25 03:56:14;;;;;;;27.42;18.33;;;;;;;22.29;74.39;96727.03;4972749;28;20106;-61
2021/07/25 03:58:39;;;;;;;24.33;17.25;;;;;;;22.24;74.84;96734.00;4972430;28;20023;-62
2021/07/25 04:01:04;;;;;;;23.30;18.23;;;;;;;22.21;74.85;96728.13;4972718;28;20027;-61
2021/07/25 04:03:30;;;;;;;22.92;16.85;;;;;;;22.19;74.97;96731.09;4973854;28;20050;-61
2021/07/25 04:05:55;;;;;;;27.88;18.20;;;;;;;22.27;74.83;96723.69;4973872;28;20026;-61
2021/07/25 04:08:21;;;;;;;26.05;17.98;;;;;;;22.39;74.08;96730.22;4973537;28;20030;-61
2021/07/25 04:10:46;;;;;;;26.20;18.40;;;;;;;22.23;74.90;96735.06;4972271;28;20114;-61
2021/07/25 04:13:12;;;;;;;23.20;17.83;;;;;;;22.14;75.93;96738.22;4975080;28;20479;-62
2021/07/25 04:15:39;;;;;;;23.95;17.67;;;;;;;22.20;75.50;96740.97;4976677;28;20116;-61
2021/07/25 04:18:05;;;;;;;24.58;18.50;;;;;;;22.33;74.63;96731.88;4969272;28;20023;-62
2021/07/25 04:20:30;;;;;;;25.25;17.38;;;;;;;22.27;75.38;96740.13;4956155;29;20046;-62
2021/07/25 04:22:55;;;;;;;24.75;18.73;;;;;;;22.44;74.05;96733.16;4956557;28;20054;-62
2021/07/25 04:25:21;;;;;;;25.40;19.23;;;;;;;22.40;74.69;96729.19;4955701;29;20126;-61
2021/07/25 04:27:46;;;;;;;24.80;18.75;;;;;;;22.47;74.19;96727.25;4958084;28;20468;-62
2021/07/25 04:30:13;;;;;;;24.20;17.58;;;;;;;22.53;74.41;96762.03;4957290;28;20030;-62
2021/07/25 04:32:39;;;;;;;23.67;17.73;;;;;;;22.37;74.99;96757.84;4956153;29;20035;-61
2021/07/25 04:35:07;;;;;;;23.65;16.58;;;;;;;22.46;74.59;96736.53;4957805;28;20361;-63
2021/07/25 04:37:34;;;;;;;27.10;17.20;;;;;;;22.67;73.61;96710.75;4956199;28;20510;-63
2021/07/25 04:40:00;;;;;;;23.17;17.10;;;;;;;22.80;73.10;96709.03;4976387;28;20041;-63
2021/07/25 04:42:26;;;;;;;24.02;17.17;;;;;;;22.81;73.53;96727.16;4976193;28;20073;-62
2021/07/25 04:45:10;;;;;;;23.20;17.50;;;;;;;22.89;72.95;96736.00;4976221;28;20084;-62
2021/07/25 04:47:43;;;;;;;25.63;17.63;;;;;;;22.82;73.38;96739.81;4975394;28;20070;-63
2021/07/25 04:50:13;;;;;;;22.48;16.63;;;;;;;22.86;73.51;96730.94;4976223;28;20368;-63
2021/07/25 04:52:40;;;;;;;24.15;16.55;;;;;;;22.82;73.46;96737.94;4974984;28;20034;-63
2021/07/25 04:55:10;;;;;;;22.50;16.55;;;;;;;22.86;73.18;96730.09;4976154;28;20462;-63
2021/07/25 04:57:42;;;;;;;28.02;18.17;;;;;;;22.76;73.87;96730.56;4976182;28;20476;-63
2021/07/25 05:00:13;;;;;;;22.52;16.88;;;;;;;22.99;72.45;96751.97;4975948;28;20062;-63
2021/07/25 05:02:40;;;;;;;24.27;17.65;;;;;;;23.20;71.22;96761.00;4975823;28;20042;-63
2021/07/25 05:05:07;;;;;;;25.38;18.20;;;;;;;23.05;71.15;96755.78;4975299;28;20031;-63
2021/07/25 05:07:38;;;;;;;24.00;17.98;;;;;;;23.07;71.37;96753.63;4973957;28;20058;-63
2021/07/25 05:10:04;;;;;;;26.17;17.85;;;;;;;23.14;71.74;96757.22;4974544;28;20560;-63
2021/07/25 05:12:37;;;;;;;25.90;17.83;;;;;;;23.23;71.05;96761.38;4975177;28;20027;-63
2021/07/25 05:15:20;;;;;;;26.10;18.05;;;;;;;23.36;70.25;96757.75;4975740;28;20031;-63
2021/07/25 05:18:00;;;;;;;23.63;17.75;;;;;;;23.32;70.01;96762.00;4974121;28;20046;-63
2021/07/25 05:20:35;;;;;;;25.25;19.15;;;;;;;23.31;70.31;96754.00;4975985;28;20035;-63
2021/07/25 05:23:32;;;;;;;27.63;18.08;;;;;;;23.45;69.27;96746.50;4974123;28;20563;-63
2021/07/25 05:25:58;;;;;;;23.85;18.25;;;;;;;23.50;68.90;96747.53;4975586;28;20125;-62
2021/07/25 05:28:25;;;;;;;25.50;18.45;;;;;;;23.44;69.38;96750.31;4975648;28;20057;-62
2021/07/25 05:30:55;;;;;;;24.42;18.10;;;;;;;23.59;70.00;96742.63;4968262;28;20073;-63
2021/07/25 05:33:22;;;;;;;26.25;18.85;;;;;;;23.41;69.53;96743.38;4964691;28;20030;-60
2021/07/25 05:35:48;;;;;;;22.98;17.38;;;;;;;23.44;69.35;96740.19;4965611;28;20025;-60
2021/07/25 05:38:15;;;;;;;24.50;17.33;;;;;;;23.35;69.08;96741.50;4964444;28;20388;-61
2021/07/25 05:40:40;;;;;;;26.08;18.10;;;;;;;23.44;68.34;96731.97;4964345;28;20022;-61
2021/07/25 05:43:06;;;;;;;23.80;17.15;;;;;;;23.39;68.34;96732.59;4963897;28;20030;-61
2021/07/25 05:45:31;;;;;;;23.00;17.05;;;;;;;23.46;68.38;96729.00;4963053;28;20058;-61
2021/07/25 05:47:57;;;;;;;26.30;18.13;;;;;;;23.26;69.01;96721.72;4972624;28;20031;-59
2021/07/25 05:50:22;;;;;;;21.08;16.95;;;;;;;23.31;68.90;96719.16;4964935;28;20086;-58
2021/07/25 05:52:53;;;;;;;20.77;16.70;;;;;;;23.31;67.86;96715.56;4966301;28;20082;-57
2021/07/25 05:55:23;;;;;;;21.80;16.48;;;;;;;23.38;67.00;96711.75;4971830;28;20026;-58
2021/07/25 05:57:49;;;;;;;22.00;16.52;;;;;;;23.40;66.65;96722.50;4965163;28;20495;-59
2021/07/25 06:00:14;;;;;;;20.27;15.25;;;;;;;23.51;66.55;96720.94;4964838;28;20057;-58
2021/07/25 06:02:52;;;;;;;21.15;15.13;;;;;;;23.66;66.20;96726.13;4963720;28;20558;-58
2021/07/25 06:05:18;;;;;;;22.25;15.95;;;;;;;23.68;65.07;96724.00;4964073;28;20432;-59
2021/07/25 06:07:44;;;;;;;20.98;15.20;;;;;;;23.69;65.33;96723.78;4964281;28;20035;-58
2021/07/25 06:10:10;;;;;;;20.88;14.27;;;;;;;23.72;65.09;96723.31;4964139;28;20081;-59
2021/07/25 06:12:39;;;;;;;25.08;15.45;;;;;;;23.59;65.43;96711.63;4965657;28;20451;-59
2021/07/25 06:15:05;;;;;;;20.80;15.55;;;;;;;23.40;65.55;96708.78;4963421;28;20031;-59
2021/07/25 06:17:31;;;;;;;19.20;14.02;;;;;;;23.36;65.58;96729.47;4963277;28;20022;-59
2021/07/25 06:19:56;;;;;;;19.30;14.70;;;;;;;23.12;66.82;96740.13;4963843;28;20364;-60
2021/07/25 06:22:21;;;;;;;19.58;13.77;;;;;;;23.35;66.37;96736.84;4963715;28;20476;-60
2021/07/25 06:24:47;;;;;;;19.63;13.23;;;;;;;23.54;65.71;96729.59;4963928;28;20113;-61
2021/07/25 06:27:12;;;;;;;18.05;14.00;;;;;;;23.49;65.32;96723.06;4970949;28;20039;-60
2021/07/25 06:29:38;;;;;;;20.73;14.60;;;;;;;23.56;65.20;96713.72;4972048;28;20035;-61
2021/07/25 06:32:04;;;;;;;20.85;14.23;;;;;;;23.59;64.90;96700.63;4971582;28;20062;-61
2021/07/25 06:34:29;;;;;;;19.50;13.57;;;;;;;23.72;64.37;96712.34;4971919;28;20052;-61
2021/07/25 06:36:55;;;;;;;21.65;14.85;;;;;;;23.59;64.52;96717.94;4958069;28;20037;-60
2021/07/25 06:39:20;;;;;;;23.33;14.70;;;;;;;23.79;64.14;96717.78;4971534;28;20022;-61
2021/07/25 06:41:46;;;;;;;23.98;15.43;;;;;;;23.79;63.62;96722.44;4971897;28;20038;-59
2021/07/25 06:44:11;;;;;;;22.10;14.98;;;;;;;23.61;64.91;96723.19;4968917;28;20039;-60
2021/07/25 06:46:36;;;;;;;19.27;13.80;;;;;;;23.98;64.02;96726.13;4956107;28;20027;-60
2021/07/25 06:49:02;;;;;;;21.85;14.77;;;;;;;24.07;63.38;96736.59;4955584;28;20102;-60
2021/07/25 06:51:27;;;;;;;20.70;14.90;;;;;;;24.05;63.50;96741.50;4955633;28;20102;-60
2021/07/25 06:53:52;;;;;;;20.85;14.35;;;;;;;24.25;62.32;96745.94;4962109;28;20035;-60
2021/07/25 06:56:18;;;;;;;19.35;14.50;;;;;;;24.30;62.43;96746.13;4960891;28;20472;-60
2021/07/25 06:58:44;;;;;;;21.15;14.57;;;;;;;24.38;62.18;96737.56;4962547;28;20027;-61
2021/07/25 07:01:11;;;;;;;21.42;14.07;;;;;;;24.49;61.66;96740.66;4963150;28;20094;-60
2021/07/25 07:03:38;;;;;;;22.35;15.13;;;;;;;24.42;61.72;96735.22;4962847;28;20114;-60
2021/07/25 07:06:09;;;;;;;21.40;15.85;;;;;;;24.42;61.79;96724.22;4964138;28;20042;-61
2021/07/25 07:08:35;;;;;;;22.45;14.60;;;;;;;24.32;62.50;96710.16;4963283;28;20458;-61
2021/07/25 07:11:00;;;;;;;19.50;14.15;;;;;;;24.35;62.24;96707.81;4964149;28;20487;-59
2021/07/25 07:13:26;;;;;;;20.70;15.32;;;;;;;24.31;62.68;96701.09;4961024;28;20472;-59
2021/07/25 07:15:51;;;;;;;21.50;15.40;;;;;;;24.32;62.50;96701.91;4964266;28;20054;-59
2021/07/25 07:18:18;;;;;;;21.42;15.20;;;;;;;24.28;62.85;96708.94;4962431;28;20114;-60
2021/07/25 07:20:43;;;;;;;21.25;15.52;;;;;;;24.14;63.22;96703.56;4962908;28;20115;-60
2021/07/25 07:23:13;;;;;;;20.88;15.20;;;;;;;24.14;63.08;96719.22;4963188;28;20034;-59
2021/07/25 07:25:48;;;;;;;21.25;15.13;;;;;;;24.13;63.05;96718.41;4963101;28;20042;-60
2021/07/25 07:28:15;;;;;;;22.23;14.77;;;;;;;24.13;63.00;96720.28;4968946;28;20025;-60
2021/07/25 07:30:41;;;;;;;21.15;15.52;;;;;;;24.13;63.10;96723.88;4945873;28;20106;-60
2021/07/25 07:33:14;;;;;;;25.50;15.55;;;;;;;24.08;63.43;96726.47;4964781;28;20127;-60
2021/07/25 07:35:40;;;;;;;20.80;15.60;;;;;;;23.90;63.77;96730.84;4962636;28;20422;-61
2021/07/25 07:38:06;;;;;;;20.08;15.82;;;;;;;23.93;63.46;96742.44;4963670;28;20031;-59
2021/07/25 07:40:31;;;;;;;21.50;14.60;;;;;;;24.02;63.47;96743.84;4962705;28;20054;-59
2021/07/25 07:42:57;;;;;;;18.88;14.65;;;;;;;24.04;63.38;96736.22;4962687;28;20031;-59
2021/07/25 07:45:23;;;;;;;23.52;14.80;;;;;;;24.07;63.53;96741.25;4962452;28;20050;-60
2021/07/25 07:47:49;;;;;;;20.05;15.35;;;;;;;24.09;63.29;96743.78;4968623;28;20023;-60
2021/07/25 07:50:16;;;;;;;20.45;14.77;;;;;;;24.05;63.62;96754.34;4953980;28;20430;-60
2021/07/25 07:52:41;;;;;;;22.73;15.35;;;;;;;24.03;63.70;96756.50;4966572;28;20027;-61
2021/07/25 07:55:07;;;;;;;22.48;15.07;;;;;;;24.10;63.57;96765.53;4966510;28;20045;-59
2021/07/25 07:57:33;;;;;;;24.30;14.93;;;;;;;23.90;64.03;96771.16;4962263;28;20128;-59
2021/07/25 07:59:58;;;;;;;19.35;13.95;;;;;;;23.87;64.37;96761.44;4973139;28;20096;-58
2021/07/25 08:02:23;;;;;;;19.10;14.25;;;;;;;23.98;64.20;96762.66;4975341;28;20038;-59
2021/07/25 08:04:49;;;;;;;21.23;14.23;;;;;;;23.91;64.62;96756.38;4991209;28;20357;-59
2021/07/25 08:07:14;;;;;;;18.77;13.77;;;;;;;23.95;64.58;96756.78;4973981;28;20019;-59
2021/07/25 08:09:40;;;;;;;18.33;13.45;;;;;;;24.05;64.33;96748.88;4974485;28;20031;-60
2021/07/25 08:12:06;;;;;;;19.08;13.27;;;;;;;24.17;64.23;96743.50;4975245;28;20498;-60
2021/07/25 08:14:32;;;;;;;19.88;13.90;;;;;;;24.34;63.63;96736.34;4975233;28;20061;-60
2021/07/25 08:16:58;;;;;;;19.10;14.02;;;;;;;24.34;63.05;96738.28;4957546;28;20066;-59
2021/07/25 08:19:24;;;;;;;20.38;13.20;;;;;;;24.34;63.62;96732.78;4975986;28;20502;-58
2021/07/25 08:21:50;;;;;;;17.77;13.05;;;;;;;24.35;63.26;96731.72;4968618;28;20027;-58
2021/07/25 08:24:16;;;;;;;17.92;12.60;;;;;;;24.46;63.00;96716.38;4954301;28;20043;-60
2021/07/25 08:26:41;;;;;;;16.52;13.63;;;;;;;24.43;63.39;96711.34;4972612;28;20537;-60
2021/07/25 08:29:07;;;;;;;17.05;12.90;;;;;;;24.56;62.91;96712.03;4974760;28;20113;-59
2021/07/25 08:31:32;;;;;;;17.63;12.57;;;;;;;24.86;62.59;96718.72;4965871;28;20646;-59
2021/07/25 08:33:58;;;;;;;18.42;13.38;;;;;;;24.88;62.43;96722.91;4973168;28;20146;-59
2021/07/25 08:36:23;;;;;;;17.10;12.63;;;;;;;25.00;62.14;96733.13;4966578;28;20081;-60
2021/07/25 08:38:49;;;;;;;16.20;12.68;;;;;;;25.00;61.74;96719.38;4969105;28;20019;-60
2021/07/25 08:41:17;;;;;;;18.83;12.77;;;;;;;25.04;61.59;96717.84;4969260;28;20030;-60
2021/07/25 08:43:46;;;;;;;20.08;12.38;;;;;;;25.12;60.95;96731.31;4973973;28;20498;-61
2021/07/25 08:46:13;;;;;;;20.58;12.65;;;;;;;25.13;60.29;96721.97;4974521;28;20099;-61
2021/07/25 08:48:44;;;;;;;18.38;12.00;;;;;;;25.13;60.48;96732.97;4976094;28;20023;-61
2021/07/25 08:51:14;;;;;;;17.13;11.80;;;;;;;25.17;60.16;96733.34;4957466;28;20480;-60
2021/07/25 08:54:06;;;;;;;19.98;11.55;;;;;;;25.24;60.16;96740.47;4955275;29;20035;-60
2021/07/25 08:56:34;;;;;;;20.55;12.27;;;;;;;25.29;60.65;96748.00;4956778;28;20030;-62
2021/07/25 08:59:03;;;;;;;16.52;11.05;;;;;;;25.23;60.13;96749.78;4940246;28;20025;-63
2021/07/25 09:01:40;;;;;;;20.30;12.02;;;;;;;25.16;60.79;96732.53;4964589;28;20433;-64
2021/07/25 09:04:06;;;;;;;17.17;12.15;;;;;;;25.10;60.32;96721.59;4964708;28;20026;-64
2021/07/25 09:06:58;;;;;;;17.00;12.02;;;;;;;25.20;60.43;96727.38;4963232;28;20035;-63
2021/07/25 09:09:23;;;;;;;17.48;11.60;;;;;;;25.18;60.36;96735.88;4977013;28;20147;-62
2021/07/25 09:11:49;;;;;;;19.30;10.90;;;;;;;25.40;58.95;96743.66;4963241;28;20125;-62
2021/07/25 09:14:15;;;;;;;18.95;12.40;;;;;;;25.71;58.42;96752.78;4966543;28;20517;-62
2021/07/25 09:16:40;;;;;;;18.75;12.40;;;;;;;25.61;58.67;96744.22;4964480;28;20582;-62
2021/07/25 09:19:06;;;;;;;17.70;12.82;;;;;;;25.79;57.82;96755.19;4961985;28;20038;-63
2021/07/25 09:21:42;;;;;;;18.83;12.15;;;;;;;26.17;57.95;96740.19;4954254;28;20031;-63
2021/07/25 09:24:22;;;;;;;18.67;12.38;;;;;;;26.19;57.29;96740.81;4936738;29;20043;-63
2021/07/25 09:27:00;;;;;;;17.10;12.23;;;;;;;26.13;57.07;96714.19;4965634;28;20113;-62
2021/07/25 09:29:36;;;;;;;16.58;11.48;;;;;;;26.34;56.91;96703.66;4974703;28;20053;-62
2021/07/25 09:32:12;;;;;;;24.42;11.65;;;;;;;26.56;56.07;96707.50;4975296;28;20031;-62
2021/07/25 09:34:38;;;;;;;17.60;11.40;;;;;;;26.66;55.92;96706.03;4973454;28;20442;-62
2021/07/25 09:37:19;;;;;;;17.17;11.38;;;;;;;26.84;55.30;96702.31;4974984;28;20479;-62
2021/07/25 09:39:46;;;;;;;21.02;12.20;;;;;;;26.78;55.28;96711.53;4974879;28;20047;-62
2021/07/25 09:42:12;;;;;;;17.05;12.18;;;;;;;26.70;55.73;96718.25;4975043;28;20134;-62
2021/07/25 09:44:52;;;;;;;17.10;11.45;;;;;;;26.36;56.27;96705.09;4975027;28;20101;-62
2021/07/25 09:47:35;;;;;;;16.45;11.52;;;;;;;25.99;56.63;96677.75;4972894;28;20026;-63
2021/07/25 09:50:04;;;;;;;18.88;10.95;;;;;;;25.76;57.36;96662.00;4973194;28;20081;-63
2021/07/25 09:52:31;;;;;;;17.63;10.70;;;;;;;25.42;57.62;96669.13;4974678;28;20511;-63
2021/07/25 09:54:57;;;;;;;15.93;10.55;;;;;;;25.30;58.95;96660.81;4975041;28;20030;-63
2021/07/25 09:57:26;;;;;;;16.45;10.40;;;;;;;25.15;58.49;96691.50;4975110;28;20027;-62
2021/07/25 09:59:53;;;;;;;13.90;10.00;;;;;;;25.29;58.82;96687.47;4973321;28;20026;-63
2021/07/25 10:02:45;;;;;;;15.30;9.52;;;;;;;25.33;58.96;96668.56;4974103;28;20034;-62
2021/07/25 10:05:18;;;;;;;14.98;9.10;;;;;;;25.38;58.48;96652.25;4973837;28;20042;-62
2021/07/25 10:07:48;;;;;;;18.30;9.27;;;;;;;25.44;58.74;96645.81;4975508;28;20030;-62
2021/07/25 10:10:18;;;;;;;18.60;10.00;;;;;;;25.39;58.83;96643.75;4974004;28;20026;-63
2021/07/25 10:12:45;;;;;;;15.60;10.48;;;;;;;25.23;59.28;96638.88;4973224;28;20082;-62
2021/07/25 10:15:16;;;;;;;13.43;9.27;;;;;;;25.11;59.87;96647.09;4974704;28;20054;-63
2021/07/25 10:17:43;;;;;;;14.95;9.52;;;;;;;25.01;59.82;96669.66;4974315;28;20031;-63
2021/07/25 10:20:11;;;;;;;19.80;10.00;;;;;;;24.90;60.10;96723.50;4973772;28;20019;-63
2021/07/25 10:22:37;;;;;;;15.02;8.32;;;;;;;23.62;63.21;96760.56;4973166;28;20031;-63
2021/07/25 10:25:06;;;;;;;18.20;8.85;;;;;;;20.90;74.31;96799.38;4973450;28;20108;-63
2021/07/25 10:27:31;;;;;;;7.47;4.10;;;;;;;19.01;73.20;96795.13;4972965;28;20395;-63
2021/07/25 10:30:08;;;;;;;7.32;2.58;;;;;;;18.18;74.43;96773.38;4974137;28;20527;-62
2021/07/25 10:32:36;;;;;;;4.38;2.45;;;;;;;18.47;74.56;96736.34;4957005;28;20039;-62
2021/07/25 10:35:10;;;;;;;4.97;2.45;;;;;;;18.00;74.32;96764.75;4974265;28;20110;-62
2021/07/25 10:37:40;;;;;;;6.82;2.83;;;;;;;18.04;74.53;96779.66;4973367;28;20496;-63
2021/07/25 10:40:06;;;;;;;8.88;3.00;;;;;;;17.05;80.41;96791.22;4957203;28;20050;-62
2021/07/25 10:42:35;;;;;;;6.53;3.15;;;;;;;16.72;83.43;96769.59;4974573;28;20033;-62
2021/07/25 10:45:01;;;;;;;9.75;4.03;;;;;;;17.46;83.32;96785.50;4972817;28;20117;-62
2021/07/25 10:47:33;;;;;;;14.05;5.15;;;;;;;18.25;83.63;96781.66;4974252;28;20161;-62
2021/07/25 10:50:06;;;;;;;10.52;5.60;;;;;;;18.65;82.62;96765.06;4972965;28;20118;-62
2021/07/25 10:55:41;;;;;;;9.45;5.88;;;;;;;19.68;78.89;96762.28;4974029;28;20031;-62
2021/07/25 10:58:09;;;;;;;6.80;4.25;;;;;;;18.90;79.23;96774.63;4973976;28;20035;-62
2021/07/25 11:00:51;;;;;;;10.82;5.28;;;;;;;19.06;77.78;96787.19;5005758;28;20023;-62
2021/07/25 11:03:25;;;;;;;7.60;4.53;;;;;;;18.71;80.18;96769.75;4973039;28;20029;-62
2021/07/25 11:06:05;;;;;;;7.82;4.60;;;;;;;19.17;81.13;96772.22;4974541;28;20073;-62
2021/07/25 11:08:35;;;;;;;7.28;4.43;;;;;;;19.17;79.71;96780.41;4973986;28;20379;-62
2021/07/25 11:11:01;;;;;;;10.50;4.80;;;;;;;18.84;81.90;96769.94;4972939;28;20156;-62
2021/07/25 11:13:40;;;;;;;10.95;5.50;;;;;;;18.58;85.46;96765.78;5005637;28;20467;-62
2021/07/25 11:16:29;;;;;;;9.65;5.70;;;;;;;18.76;82.86;96761.88;4973717;28;20387;-62
2021/07/25 11:19:15;;;;;;;11.88;6.40;;;;;;;19.12;80.49;96785.63;4970995;28;20045;-62
2021/07/25 11:21:44;;;;;;;9.75;5.78;;;;;;;18.94;82.47;96810.53;4974665;28;20023;-62
2021/07/25 11:24:18;;;;;;;8.68;5.00;;;;;;;18.94;81.06;96809.69;4977079;28;20450;-62
2021/07/25 11:26:47;;;;;;;8.80;5.32;;;;;;;19.29;81.56;96807.19;4977838;28;20119;-62